M I D A S
Marine Information and Data Acquisition System
Tripno 861 of the Zeeleeuw from 2005-03-11 07:52:16 to 2005-03-11 13:55:14
Back to CruiseResearch ActivitiesStationsMapUnderway DataData graphs

EquipmentUnitsComments
TimeDGPSUTC
LatitudeDGPSDM.mWGS84
LongitudeDGPSDM.mWGS84
SpeedMeteo Stationm/sRelative wind speed
DirectionMeteo StationdegRelative wind direction
TemperatureMeteo Stationdeg CelciusAir temperature
PressureMeteo StationPaAtmospheric pressure
HumidityMeteo Station%Relative humidity
Missing or incorrect values are displayed as -999
Metereological data collected by the RV Zeeleeuw from 2005-03-11 07:53:12 to 2005-03-11 14:07:33
Time Latitude Longitude Speed Direction Temperature Pressure Humidity
2005-03-11 07:54 51°13.564 2°56.159 5.3 111 5.1 101500 83
2005-03-11 07:55 51°13.528 2°56.193 5 87 5.1 101490 82
2005-03-11 07:56 51°13.534 2°56.192 4.8 61 5.1 101490 82
2005-03-11 07:57 51°13.54 2°56.197 9.2 31 5.1 101490 83
2005-03-11 07:58 51°13.541 2°56.206 6.4 26 5.1 101500 82
2005-03-11 07:59 51°13.559 2°56.135 7.2 338 5.1 101490 82
2005-03-11 08:00 51°13.615 2°56.006 9.7 4 5.2 101490 82
2005-03-11 08:01 51°13.678 2°55.858 7.4 326 5.1 101480 82
2005-03-11 08:02 51°13.75 2°55.709 5.1 302 5.2 101480 82
2005-03-11 08:03 51°13.853 2°55.612 5.7 349 5.2 101490 82
2005-03-11 08:04 51°13.965 2°55.534 7.8 231 5.2 101490 82
2005-03-11 08:05 51°14.079 2°55.451 6.3 306 5.2 101490 82
2005-03-11 08:06 51°14.209 2°55.339 15.4 323 5.1 101460 82
2005-03-11 08:07 51°14.327 2°55.147 13.4 329 5.1 101460 82
2005-03-11 08:08 51°14.408 2°54.895 18.2 339 4.9 101430 83
2005-03-11 08:09 51°14.421 2°54.566 18.3 351 4.8 101430 84
2005-03-11 08:10 51°14.363 2°54.217 19.9 7 4.8 101410 84
2005-03-11 08:11 51°14.267 2°53.882 18.2 13 4.8 101440 84
2005-03-11 08:12 51°14.138 2°53.571 17.5 -999 4.8 101460 85
2005-03-11 08:13 51°14.007 2°53.255 18.7 16 4.7 101460 85
2005-03-11 08:14 51°13.877 2°52.93 17.7 10 4.7 101450 85
2005-03-11 08:15 51°13.748 2°52.604 19.8 11 4.7 101450 85
2005-03-11 08:16 51°13.62 2°52.271 18.5 8 4.7 101470 86
2005-03-11 08:17 51°13.488 2°51.939 18.3 6 4.7 101460 86
2005-03-11 08:18 51°13.359 2°51.606 21 12 4.7 101440 86
2005-03-11 08:19 51°13.228 2°51.274 19.3 15 4.7 101450 85
2005-03-11 08:20 51°13.097 2°50.941 18.5 11 4.7 101450 85
2005-03-11 08:21 51°12.971 2°50.601 18 4 4.7 101440 85
2005-03-11 08:22 51°12.843 2°50.262 18.6 12 4.7 101430 86
2005-03-11 08:23 51°12.717 2°49.92 19.5 9 4.7 101450 86
2005-03-11 08:24 51°12.591 2°49.578 19.5 12 4.7 101450 86
2005-03-11 08:25 51°12.465 2°49.236 18.8 12 4.7 101440 86
2005-03-11 08:26 51°12.34 2°48.894 20.6 11 4.7 101440 86
2005-03-11 08:27 51°12.215 2°48.554 17.4 13 4.7 101450 86
2005-03-11 08:28 51°12.09 2°48.207 19 12 4.7 101450 86
2005-03-11 08:29 51°11.964 2°47.861 18.4 8 4.7 101450 86
2005-03-11 08:30 51°11.842 2°47.521 16.7 14 4.7 101460 86
2005-03-11 08:31 51°11.719 2°47.181 17.7 13 4.7 101460 86
2005-03-11 08:32 51°11.601 2°46.842 17.4 12 4.7 101460 86
2005-03-11 08:33 51°11.51 2°46.484 19.9 6 4.7 101460 86
2005-03-11 08:34 51°11.416 2°46.122 18.5 7 4.7 101460 86
2005-03-11 08:35 51°11.321 2°45.761 19 9 4.7 101450 86
2005-03-11 08:36 51°11.225 2°45.396 19.3 7 4.7 101440 85
2005-03-11 08:37 51°11.13 2°45.03 20.3 8 4.8 101460 85
2005-03-11 08:38 51°11.039 2°44.669 17.7 5 4.7 101450 85
2005-03-11 08:39 51°10.955 2°44.289 20.7 7 4.7 101440 85
2005-03-11 08:40 51°10.871 2°43.913 18 7 4.6 101440 87
2005-03-11 08:41 51°10.789 2°43.55 18.7 -999 4.6 101440 87
2005-03-11 08:42 51°10.707 2°43.181 18.1 3 4.6 101440 87
2005-03-11 08:43 51°10.626 2°42.817 18.4 7 4.7 101450 87
2005-03-11 08:44 51°10.544 2°42.441 19 10 4.7 101450 87
2005-03-11 08:45 51°10.464 2°42.076 20.3 6 4.7 101430 87
2005-03-11 08:46 51°10.386 2°41.706 18.8 8 4.8 101440 87
2005-03-11 08:47 51°10.305 2°41.333 19.2 10 4.8 101440 86
2005-03-11 08:48 51°10.229 2°40.965 20.6 -999 4.8 101450 86
2005-03-11 08:49 51°10.152 2°40.6 18.3 4 4.8 101430 86
2005-03-11 08:50 51°10.074 2°40.231 19.4 8 4.8 101450 86
2005-03-11 08:51 51°9.995 2°39.862 18.8 7 4.8 101440 86
2005-03-11 08:52 51°9.921 2°39.499 18.1 6 4.8 101450 86
2005-03-11 08:53 51°9.846 2°39.135 19.7 5 4.8 101440 86
2005-03-11 08:54 51°9.772 2°38.766 19.8 5 4.8 101430 86
2005-03-11 08:55 51°9.697 2°38.395 19.1 3 4.9 101420 86
2005-03-11 08:56 51°9.618 2°38.03 19.7 9 4.9 101410 85
2005-03-11 08:57 51°9.529 2°37.673 19.7 6 4.9 101420 85
2005-03-11 08:58 51°9.455 2°37.299 18.9 357 5 101430 85
2005-03-11 08:59 51°9.385 2°36.927 18.7 2 5 101410 85
2005-03-11 09:00 51°9.322 2°36.615 15.1 12 5 101420 86
2005-03-11 09:01 51°9.267 2°36.486 14.6 45 4.9 101440 85
2005-03-11 09:02 51°9.228 2°36.45 12.8 67 4.9 101410 85
2005-03-11 09:03 51°9.199 2°36.43 10.7 75 4.9 101430 86
2005-03-11 09:04 51°9.177 2°36.415 11.8 80 4.9 101420 86
2005-03-11 09:05 51°9.162 2°36.403 12 81 4.9 101410 86
2005-03-11 09:06 51°9.15 2°36.394 11.2 105 4.8 101420 86
2005-03-11 09:07 51°9.136 2°36.388 12.4 103 4.8 101420 87
2005-03-11 09:08 51°9.116 2°36.384 13.2 117 4.8 101430 87
2005-03-11 09:09 51°9.093 2°36.383 12.8 114 4.8 101430 87
2005-03-11 09:10 51°9.069 2°36.383 12.4 117 4.8 101430 87
2005-03-11 09:11 51°9.042 2°36.385 13.6 123 4.8 101420 87
2005-03-11 09:12 51°9.022 2°36.44 12 200 4.8 101440 88
2005-03-11 09:13 51°9.066 2°36.463 15.3 279 4.8 101450 88
2005-03-11 09:14 51°9.133 2°36.406 14.3 292 4.8 101410 88
2005-03-11 09:15 51°9.209 2°36.325 13.5 297 4.8 101400 88
2005-03-11 09:16 51°9.274 2°36.245 15.9 298 4.8 101410 88
2005-03-11 09:17 51°9.302 2°36.196 11.9 291 4.8 101420 88
2005-03-11 09:18 51°9.314 2°36.158 13.9 289 4.8 101410 88
2005-03-11 09:19 51°9.318 2°36.132 12.8 290 4.8 101410 88
2005-03-11 09:20 51°9.318 2°36.114 14.7 284 4.8 101420 88
2005-03-11 09:21 51°9.315 2°36.102 12.4 268 4.8 101430 88
2005-03-11 09:22 51°9.309 2°36.093 15.8 266 4.8 101430 87
2005-03-11 09:23 51°9.303 2°36.084 13.5 266 4.9 101430 87
2005-03-11 09:24 51°9.296 2°36.076 12.3 260 4.9 101400 87
2005-03-11 09:25 51°9.288 2°36.068 13.1 263 4.9 101400 87
2005-03-11 09:26 51°9.281 2°36.059 15.4 267 4.9 101400 87
2005-03-11 09:27 51°9.275 2°36.049 15.3 267 4.9 101410 87
2005-03-11 09:28 51°9.268 2°36.039 13 263 4.9 101400 87
2005-03-11 09:29 51°9.261 2°36.028 13.9 269 4.9 101390 87
2005-03-11 09:30 51°9.253 2°36.018 14.5 265 4.9 101400 88
2005-03-11 09:31 51°9.246 2°36.008 12 268 4.8 101400 88
2005-03-11 09:32 51°9.24 2°35.997 8.8 254 4.8 101390 88
2005-03-11 09:33 51°9.253 2°35.983 9.4 255 4.8 101380 88
2005-03-11 09:34 51°9.278 2°35.986 14.2 238 4.8 101380 88
2005-03-11 09:35 51°9.298 2°36.003 4.4 234 4.9 101390 88
2005-03-11 09:36 51°9.315 2°36.02 11.4 231 4.9 101390 88
2005-03-11 09:37 51°9.328 2°36.044 9.1 202 4.8 101390 88
2005-03-11 09:38 51°9.329 2°36.079 10.4 160 4.9 101400 89
2005-03-11 09:39 51°9.311 2°36.111 10.5 125 4.8 101410 88
2005-03-11 09:40 51°9.279 2°36.12 11 102 4.8 101400 88
2005-03-11 09:41 51°9.241 2°36.109 11.6 73 4.8 101370 89
2005-03-11 09:42 51°9.209 2°36.088 11.7 67 4.8 101370 89
2005-03-11 09:43 51°9.184 2°36.071 13.3 59 4.8 101360 89
2005-03-11 09:44 51°9.162 2°36.056 12.6 63 4.8 101370 90
2005-03-11 09:45 51°9.143 2°36.046 10.8 65 4.7 101360 90
2005-03-11 09:46 51°9.126 2°36.038 14.3 85 4.7 101370 90
2005-03-11 09:47 51°9.105 2°36.03 11.1 79 4.7 101360 90
2005-03-11 09:48 51°9.087 2°36.022 13.1 85 4.7 101370 90
2005-03-11 09:49 51°9.047 2°35.997 13.1 -999 4.8 101360 90
2005-03-11 09:50 51°9.012 2°35.916 14.2 348 4.8 101370 90
2005-03-11 09:51 51°9.037 2°35.841 15.1 278 4.8 101340 90
2005-03-11 09:52 51°9.073 2°35.828 14.1 270 4.8 101400 90
2005-03-11 09:53 51°9.09 2°35.807 14.1 273 4.8 101400 89
2005-03-11 09:54 51°9.099 2°35.789 15.4 277 4.8 101380 90
2005-03-11 09:55 51°9.108 2°35.774 18 277 4.8 101370 89
2005-03-11 09:56 51°9.13 2°35.759 8.9 261 4.9 101360 89
2005-03-11 09:57 51°9.16 2°35.772 8.4 235 4.9 101410 89
2005-03-11 09:58 51°9.175 2°35.814 11 212 4.8 101420 89
2005-03-11 09:59 51°9.184 2°35.863 6.2 190 4.9 101410 89
2005-03-11 10:00 51°9.181 2°35.917 10.3 166 4.9 101390 89
2005-03-11 10:01 51°9.168 2°35.97 11.6 152 4.9 101380 89
2005-03-11 10:02 51°9.146 2°36.019 10.4 135 4.9 101360 89
2005-03-11 10:03 51°9.12 2°36.051 11.7 128 4.8 101360 89
2005-03-11 10:04 51°9.09 2°36.072 9.8 127 4.8 101370 89
2005-03-11 10:05 51°9.071 2°36.141 8.3 210 4.8 101380 89
2005-03-11 10:06 51°9.124 2°36.165 14.1 271 4.9 101390 89
2005-03-11 10:07 51°9.192 2°36.161 10.4 269 4.9 101380 89
2005-03-11 10:08 51°9.227 2°36.147 14.1 276 4.8 101380 89
2005-03-11 10:09 51°9.245 2°36.134 14.3 276 4.9 101390 89
2005-03-11 10:10 51°9.253 2°36.126 15.1 275 4.9 101380 88
2005-03-11 10:11 51°9.256 2°36.122 13.7 274 4.9 101360 88
2005-03-11 10:12 51°9.257 2°36.123 14 274 5 101380 88
2005-03-11 10:13 51°9.255 2°36.127 13.4 269 4.9 101390 88
2005-03-11 10:14 51°9.251 2°36.133 12.2 269 5 101360 88
2005-03-11 10:15 51°9.246 2°36.14 9.6 258 5 101390 88
2005-03-11 10:16 51°9.24 2°36.147 7.6 259 4.9 101380 88
2005-03-11 10:17 51°9.234 2°36.155 9.1 260 5 101390 88
2005-03-11 10:18 51°9.227 2°36.163 11.2 258 4.9 101350 88
2005-03-11 10:19 51°9.239 2°36.177 9.4 239 4.9 101380 88
2005-03-11 10:20 51°9.253 2°36.272 12.1 135 5 101370 88
2005-03-11 10:21 51°9.194 2°36.404 10.3 121 5 101340 87
2005-03-11 10:22 51°9.12 2°36.552 10.3 133 5 101340 87
2005-03-11 10:23 51°9.12 2°36.702 11 222 5 101350 87
2005-03-11 10:24 51°9.139 2°36.734 11.3 252 5.1 101390 87
2005-03-11 10:25 51°9.141 2°36.743 10.8 272 5.1 101330 87
2005-03-11 10:26 51°9.142 2°36.753 13.8 266 5.1 101320 86
2005-03-11 10:27 51°9.14 2°36.768 9.6 260 5.1 101370 86
2005-03-11 10:28 51°9.137 2°36.786 9.9 260 5.1 101350 86
2005-03-11 10:29 51°9.132 2°36.807 10.1 254 5.1 101330 86
2005-03-11 10:30 51°9.127 2°36.825 7.9 255 5.1 101350 86
2005-03-11 10:31 51°9.125 2°36.848 10.3 260 5.2 101350 86
2005-03-11 10:32 51°9.122 2°36.87 10.9 257 5.1 101340 86
2005-03-11 10:33 51°9.12 2°36.892 12.7 264 5.1 101350 86
2005-03-11 10:34 51°9.118 2°36.915 10.8 260 5.1 101340 86
2005-03-11 10:35 51°9.115 2°36.938 14.3 262 5.1 101340 86
2005-03-11 10:36 51°9.112 2°36.963 11.8 260 5.1 101330 86
2005-03-11 10:37 51°9.107 2°36.99 10.6 258 5.1 101340 86
2005-03-11 10:38 51°9.102 2°37.02 12 251 5.2 101330 85
2005-03-11 10:39 51°9.097 2°37.049 9.9 253 5.2 101330 85
2005-03-11 10:40 51°9.094 2°37.077 10.2 256 5.2 101330 85
2005-03-11 10:41 51°9.093 2°37.107 10.3 260 5.2 101330 85
2005-03-11 10:42 51°9.093 2°37.139 10.5 266 5.3 101310 84
2005-03-11 10:43 51°9.096 2°37.169 9.7 260 5.2 101300 84
2005-03-11 10:44 51°9.104 2°37.198 7.5 266 5.3 101320 84
2005-03-11 10:45 51°9.115 2°37.224 13.5 276 5.2 101320 84
2005-03-11 10:46 51°9.122 2°37.253 15.3 270 5.2 101320 84
2005-03-11 10:47 51°9.128 2°37.285 13.4 268 5.3 101310 84
2005-03-11 10:48 51°9.134 2°37.318 12.5 264 5.3 101290 84
2005-03-11 10:49 51°9.137 2°37.354 8.5 263 5.3 101300 84
2005-03-11 10:50 51°9.139 2°37.39 10.1 260 5.3 101310 83
2005-03-11 10:51 51°9.143 2°37.427 9.2 260 5.4 101320 83
2005-03-11 10:52 51°9.147 2°37.464 11.5 267 5.4 101290 83
2005-03-11 10:53 51°9.152 2°37.503 12.8 266 5.4 101300 83
2005-03-11 10:54 51°9.157 2°37.543 11.7 261 5.4 101320 83
2005-03-11 10:55 51°9.161 2°37.584 6.8 261 5.5 101310 82
2005-03-11 10:56 51°9.165 2°37.628 8.8 260 5.5 101300 82
2005-03-11 10:57 51°9.169 2°37.669 11.1 264 5.5 101300 82
2005-03-11 10:58 51°9.174 2°37.712 12.2 269 5.5 101290 82
2005-03-11 10:59 51°9.181 2°37.757 11.9 263 5.5 101270 82
2005-03-11 11:00 51°9.186 2°37.802 11.3 263 5.5 101280 82
2005-03-11 11:01 51°9.192 2°37.851 9.8 264 5.6 101290 81
2005-03-11 11:02 51°9.199 2°37.899 10.4 263 5.6 101260 81
2005-03-11 11:03 51°9.206 2°37.948 14.8 263 5.6 101280 81
2005-03-11 11:04 51°9.212 2°38 11.3 262 5.6 101280 81
2005-03-11 11:05 51°9.218 2°38.052 11.3 261 5.5 101280 81
2005-03-11 11:06 51°9.225 2°38.105 13.8 264 5.5 101250 82
2005-03-11 11:07 51°9.232 2°38.16 11.9 260 5.6 101300 82
2005-03-11 11:08 51°9.238 2°38.216 11.6 266 5.5 101260 82
2005-03-11 11:09 51°9.246 2°38.271 11.7 260 5.5 101280 82
2005-03-11 11:10 51°9.253 2°38.328 10.4 259 5.5 101270 82
2005-03-11 11:11 51°9.262 2°38.386 8 260 5.5 101270 82
2005-03-11 11:12 51°9.278 2°38.443 16.1 273 5.5 101240 83
2005-03-11 11:13 51°9.312 2°38.479 16.6 296 5.5 101260 83
2005-03-11 11:14 51°9.343 2°38.502 11.8 228 5.5 101210 83
2005-03-11 11:15 51°9.363 2°38.495 13.3 356 5.5 101210 83
2005-03-11 11:16 51°9.35 2°38.478 15.7 12 5.5 101220 83
2005-03-11 11:17 51°9.327 2°38.402 16.5 358 5.5 101230 83
2005-03-11 11:18 51°9.312 2°38.296 16.8 2 5.5 101220 83
2005-03-11 11:19 51°9.293 2°38.191 16.5 3 5.6 101220 83
2005-03-11 11:20 51°9.272 2°38.079 17.4 2 5.5 101220 83
2005-03-11 11:21 51°9.251 2°37.97 15.5 -999 5.6 101220 83
2005-03-11 11:22 51°9.231 2°37.866 16.4 1 5.6 101210 82
2005-03-11 11:23 51°9.212 2°37.756 16.6 2 5.6 101210 82
2005-03-11 11:24 51°9.19 2°37.647 14.6 4 5.6 101230 82
2005-03-11 11:25 51°9.166 2°37.539 16.3 5 5.6 101220 82
2005-03-11 11:26 51°9.14 2°37.429 18 6 5.6 101220 82
2005-03-11 11:27 51°9.123 2°37.35 14.2 359 5.7 101250 82
2005-03-11 11:28 51°9.134 2°37.34 14.2 44 5.7 101210 82
2005-03-11 11:29 51°9.164 2°37.372 15.3 290 5.7 101210 82
2005-03-11 11:30 51°9.198 2°37.418 15.1 293 5.6 101230 82
2005-03-11 11:31 51°9.239 2°37.462 12.9 263 5.6 101200 83
2005-03-11 11:32 51°9.307 2°37.533 7.7 250 5.6 101230 83
2005-03-11 11:33 51°9.364 2°37.661 4.6 177 5.5 101270 83
2005-03-11 11:34 51°9.379 2°37.815 8.9 148 5.6 101220 83
2005-03-11 11:35 51°9.382 2°37.975 11.3 152 5.6 101210 83
2005-03-11 11:36 51°9.389 2°38.124 12 163 5.6 101210 83
2005-03-11 11:37 51°9.407 2°38.249 10.3 173 5.6 101220 83
2005-03-11 11:38 51°9.426 2°38.366 10.5 175 5.6 101210 82
2005-03-11 11:39 51°9.446 2°38.474 6.9 189 5.6 101210 83
2005-03-11 11:40 51°9.47 2°38.578 9.5 191 5.8 101220 83
2005-03-11 11:41 51°9.497 2°38.682 11.9 209 5.7 101230 82
2005-03-11 11:42 51°9.527 2°38.783 12.3 228 5.7 101260 82
2005-03-11 11:43 51°9.559 2°38.873 14.2 233 5.7 101230 82
2005-03-11 11:44 51°9.591 2°38.962 15.1 233 5.7 101210 82
2005-03-11 11:45 51°9.619 2°39.05 10.5 229 5.7 101210 82
2005-03-11 11:46 51°9.647 2°39.138 11.9 231 5.6 101230 82
2005-03-11 11:47 51°9.675 2°39.225 10.4 228 5.6 101230 82
2005-03-11 11:48 51°9.704 2°39.314 12.6 232 5.6 101220 82
2005-03-11 11:49 51°9.734 2°39.404 11.9 234 5.6 101220 82
2005-03-11 11:50 51°9.764 2°39.491 12.7 229 5.6 101200 82
2005-03-11 11:51 51°9.793 2°39.58 12.9 237 5.6 101220 82
2005-03-11 11:52 51°9.822 2°39.667 13.1 233 5.6 101220 82
2005-03-11 11:53 51°9.852 2°39.754 12.7 242 5.6 101200 82
2005-03-11 11:54 51°9.882 2°39.842 11.6 231 5.7 101200 82
2005-03-11 11:55 51°9.913 2°39.934 13 229 5.7 101210 82
2005-03-11 11:56 51°9.944 2°40.03 11.9 226 5.7 101210 82
2005-03-11 11:57 51°9.978 2°40.126 12.7 235 5.7 101210 82
2005-03-11 11:58 51°10.01 2°40.224 12.3 213 5.7 101190 82
2005-03-11 11:59 51°10.041 2°40.326 12.8 225 5.7 101200 82
2005-03-11 12:00 51°10.073 2°40.426 13.5 212 5.7 101210 82
2005-03-11 12:01 51°10.103 2°40.528 11.8 221 5.6 101190 82
2005-03-11 12:02 51°10.133 2°40.629 11.6 226 5.6 101200 83
2005-03-11 12:03 51°10.165 2°40.728 12.1 231 5.6 101200 83
2005-03-11 12:04 51°10.197 2°40.825 12.1 226 5.6 101220 83
2005-03-11 12:05 51°10.226 2°40.921 13.1 217 5.6 101180 83
2005-03-11 12:06 51°10.256 2°41.019 14.4 220 5.6 101200 83
2005-03-11 12:07 51°10.289 2°41.118 10.3 217 5.6 101180 83
2005-03-11 12:08 51°10.321 2°41.215 13.7 221 5.6 101180 83
2005-03-11 12:09 51°10.354 2°41.314 11.5 230 5.6 101200 83
2005-03-11 12:10 51°10.389 2°41.412 10.8 229 5.5 101190 83
2005-03-11 12:11 51°10.423 2°41.536 12.2 172 5.5 101130 84
2005-03-11 12:12 51°10.44 2°41.677 11.4 164 5.6 101150 83
2005-03-11 12:13 51°10.458 2°41.828 10.8 163 5.6 101140 83
2005-03-11 12:14 51°10.472 2°41.98 9.7 154 5.6 101150 83
2005-03-11 12:15 51°10.479 2°42.117 12.7 141 5.5 101150 83
2005-03-11 12:16 51°10.478 2°42.233 14 129 5.5 101120 83
2005-03-11 12:17 51°10.476 2°42.327 12.5 117 5.5 101110 83
2005-03-11 12:18 51°10.48 2°42.408 13.2 109 5.5 101110 84
2005-03-11 12:19 51°10.488 2°42.492 11.1 109 5.5 101110 84
2005-03-11 12:20 51°10.496 2°42.573 13.6 112 5.5 101110 84
2005-03-11 12:21 51°10.501 2°42.659 12.7 112 5.5 101110 84
2005-03-11 12:22 51°10.494 2°42.772 11.5 126 5.5 101110 84
2005-03-11 12:23 51°10.49 2°42.895 10.4 134 5.5 101100 84
2005-03-11 12:24 51°10.524 2°43.059 10.5 245 5.5 101120 84
2005-03-11 12:25 51°10.619 2°43.113 12.9 313 5.6 101120 84
2005-03-11 12:26 51°10.654 2°43.067 14.8 359 5.6 101080 83
2005-03-11 12:27 51°10.653 2°43.058 14.8 11 5.7 101110 83
2005-03-11 12:28 51°10.654 2°43.095 11.3 32 5.8 101110 82
2005-03-11 12:29 51°10.658 2°43.159 12.9 66 5.8 101090 81
2005-03-11 12:30 51°10.664 2°43.235 13.6 93 5.9 101080 80
2005-03-11 12:31 51°10.665 2°43.316 12.8 95 5.9 101090 79
2005-03-11 12:32 51°10.656 2°43.399 9.1 79 6 101080 79
2005-03-11 12:33 51°10.644 2°43.464 13.6 53 6 101080 78
2005-03-11 12:34 51°10.641 2°43.519 13.5 45 6 101080 78
2005-03-11 12:35 51°10.652 2°43.586 11.7 65 5.9 101090 79
2005-03-11 12:36 51°10.669 2°43.652 14.1 85 5.8 101090 80
2005-03-11 12:37 51°10.689 2°43.72 12.5 96 5.7 101090 80
2005-03-11 12:38 51°10.709 2°43.785 12.3 111 5.8 101080 80
2005-03-11 12:39 51°10.728 2°43.848 11.3 112 5.8 101090 80
2005-03-11 12:40 51°10.748 2°43.914 13.6 103 5.7 101090 81
2005-03-11 12:41 51°10.767 2°43.979 12.1 106 5.7 101090 81
2005-03-11 12:42 51°10.784 2°44.045 11.8 96 5.7 101100 81
2005-03-11 12:43 51°10.802 2°44.111 10.5 106 5.7 101090 81
2005-03-11 12:44 51°10.82 2°44.177 11.3 102 5.7 101090 81
2005-03-11 12:45 51°10.837 2°44.244 11.4 108 5.7 101090 81
2005-03-11 12:46 51°10.855 2°44.31 11.2 102 5.7 101090 81
2005-03-11 12:47 51°10.865 2°44.376 11.3 86 5.7 101090 81
2005-03-11 12:48 51°10.837 2°44.407 12.6 34 5.6 101100 81
2005-03-11 12:49 51°10.826 2°44.342 13 333 5.7 101080 81
2005-03-11 12:50 51°10.899 2°44.324 10.9 291 5.7 101080 81
2005-03-11 12:51 51°10.979 2°44.371 13.2 273 5.8 101090 80
2005-03-11 12:52 51°11.049 2°44.442 10 241 5.8 101100 79
2005-03-11 12:53 51°11.111 2°44.542 11.3 237 5.7 101110 79
2005-03-11 12:54 51°11.161 2°44.647 9.4 231 5.8 101080 79
2005-03-11 12:55 51°11.205 2°44.742 10.9 242 5.8 101080 79
2005-03-11 12:56 51°11.245 2°44.825 10 237 5.8 101070 79
2005-03-11 12:57 51°11.279 2°44.904 11.4 237 5.7 101070 79
2005-03-11 12:58 51°11.31 2°44.988 9.1 229 5.7 101070 79
2005-03-11 12:59 51°11.342 2°45.067 9.8 234 5.7 101070 80
2005-03-11 13:00 51°11.374 2°45.144 9.4 233 5.7 101060 80
2005-03-11 13:01 51°11.406 2°45.222 10 230 5.6 101070 81
2005-03-11 13:02 51°11.438 2°45.302 10.1 229 5.6 101070 81
2005-03-11 13:03 51°11.47 2°45.385 8.4 226 5.5 101070 82
2005-03-11 13:04 51°11.501 2°45.468 9.9 231 5.5 101070 83
2005-03-11 13:05 51°11.532 2°45.547 8.8 -999 5.5 101060 84
2005-03-11 13:06 51°11.565 2°45.622 9.2 243 5.4 101060 84
2005-03-11 13:07 51°11.599 2°45.695 8.4 249 5.4 101050 85
2005-03-11 13:08 51°11.633 2°45.763 10.6 246 5.5 101060 85
2005-03-11 13:09 51°11.667 2°45.828 8.9 247 5.4 101050 86
2005-03-11 13:10 51°11.702 2°45.899 9 247 5.4 101050 86
2005-03-11 13:11 51°11.732 2°45.971 9.2 237 5.4 101050 86
2005-03-11 13:12 51°11.759 2°46.041 10.4 227 5.4 101050 86
2005-03-11 13:13 51°11.782 2°46.113 11.3 223 5.4 101050 87
2005-03-11 13:14 51°11.805 2°46.185 12.1 220 5.4 101050 87
2005-03-11 13:15 51°11.827 2°46.26 12 225 5.4 101040 87
2005-03-11 13:16 51°11.849 2°46.336 10 213 5.4 101040 87
2005-03-11 13:17 51°11.87 2°46.411 11.7 211 5.5 101040 87
2005-03-11 13:18 51°11.89 2°46.484 8.8 209 5.4 101040 87
2005-03-11 13:19 51°11.91 2°46.563 6 195 5.4 101050 86
2005-03-11 13:20 51°11.924 2°46.657 10.7 163 5.5 101060 86
2005-03-11 13:21 51°11.938 2°46.767 9.4 168 5.5 101060 86
2005-03-11 13:22 51°11.95 2°46.884 10.9 153 5.5 101050 86
2005-03-11 13:23 51°11.951 2°47.01 10.2 44 5.5 101050 87
2005-03-11 13:24 51°11.944 2°47.126 11.3 127 5.4 101050 87
2005-03-11 13:25 51°11.94 2°47.214 11.1 107 5.4 101050 87
2005-03-11 13:26 51°11.939 2°47.288 12.9 -999 5.4 101060 87
2005-03-11 13:27 51°11.909 2°47.356 13.4 60 5.4 101040 87
2005-03-11 13:28 51°11.864 2°47.348 14.2 15 5.4 101000 87
2005-03-11 13:29 51°11.877 2°47.286 15.3 228 5.4 101010 87
2005-03-11 13:30 51°11.981 2°47.322 8.6 248 5.5 101010 87
2005-03-11 13:31 51°12.074 2°47.508 7.4 219 5.5 101040 86
2005-03-11 13:32 51°12.159 2°47.724 8.7 218 5.6 101040 86
2005-03-11 13:33 51°12.232 2°47.919 9.3 231 5.6 101040 85
2005-03-11 13:34 51°12.296 2°48.037 9.3 245 5.6 101030 84
2005-03-11 13:35 51°12.348 2°48.122 10.1 248 5.6 101010 84
2005-03-11 13:36 51°12.417 2°48.222 8.6 237 5.6 101020 84
2005-03-11 13:37 51°12.537 2°48.538 3.9 237 5.6 101040 83
2005-03-11 13:38 51°12.675 2°48.879 4.1 237 5.6 101030 83
2005-03-11 13:39 51°12.807 2°49.23 3.5 203 5.7 101040 83
2005-03-11 13:40 51°12.923 2°49.601 2.4 206 5.8 101030 83
2005-03-11 13:41 51°13.037 2°49.975 3.5 227 5.9 101040 83
2005-03-11 13:42 51°13.152 2°50.346 2.5 210 5.9 101040 82
2005-03-11 13:43 51°13.268 2°50.704 3.3 204 5.9 101040 81
2005-03-11 13:44 51°13.389 2°51.072 2.6 204 5.8 101030 81
2005-03-11 13:45 51°13.51 2°51.429 3.7 210 5.8 101040 81
2005-03-11 13:46 51°13.634 2°51.787 3 192 5.7 101030 81
2005-03-11 13:47 51°13.761 2°52.159 3.7 229 5.7 101030 82
2005-03-11 13:48 51°13.884 2°52.507 3.7 202 5.7 101030 82
2005-03-11 13:49 51°14.009 2°52.867 3.1 243 5.6 101030 82
2005-03-11 13:50 51°14.128 2°53.222 4.2 206 5.6 101020 82
2005-03-11 13:51 51°14.25 2°53.579 2.4 173 5.6 101030 82
2005-03-11 13:52 51°14.364 2°53.921 4.1 203 5.6 101020 82
2005-03-11 13:53 51°14.423 2°54.279 5.1 140 5.6 101020 82
2005-03-11 13:54 51°14.428 2°54.647 6.1 119 5.6 101010 82
2005-03-11 13:55 51°14.388 2°54.993 9.1 111 5.5 101010 82
2005-03-11 13:56 51°14.285 2°55.233 9.2 103 5.4 101010 83
2005-03-11 13:57 51°14.178 2°55.365 8.7 61 5.3 100990 84
2005-03-11 13:58 51°14.064 2°55.454 7.7 57 5.4 100990 84
2005-03-11 13:59 51°13.951 2°55.54 7.8 85 5.6 100990 83
2005-03-11 14:00 51°13.835 2°55.628 4.8 72 5.8 100990 82
2005-03-11 14:01 51°13.741 2°55.744 9.4 84 6 101000 80
2005-03-11 14:02 51°13.682 2°55.849 3.6 128 6.2 100990 79
2005-03-11 14:03 51°13.643 2°55.941 4.7 114 6.3 101000 78
2005-03-11 14:04 51°13.614 2°56.03 10 143 6.4 100990 78
2005-03-11 14:05 51°13.599 2°56.09 5.6 137 6.4 100990 77
2005-03-11 14:06 51°13.594 2°56.102 6.3 154 6.4 100990 77
2005-03-11 14:07 51°13.595 2°56.102 5.4 139 6.4 100990 77